South Timbalier Oil Rig, Louisiana
Current Conditions -  °F | °C
As of 2:55 PM on Saturday 25 Oct 2014 (Local Time) from KSQE Reporting Station
Clear Clear  
Wind Chill: 75°   Ceiling: Unl
Heat Index: 75°   Visibility: 10mi
Dew Point: 57°   Wind: 14mph
Humidity: 53%   Direction: 40°NE
Pressure: 30.09"   Gusts: NA
Location:  28.15°N, 90.72°W
Report Text: KSQE 251955Z AUTO 04012KT 10SM CLR 24/14 A3009 RMK A01
Loading
Personal Weather Stations






























Interactive Weather Map
Tropical Storm Tracking
New forecast layout! Learn more

10-Day Weather Forecast

Advertisements
Track Severe Weather on mobile